createdAt,value
2022-11-08T00:04:57.626Z,52.97
2022-11-08T00:10:18.183Z,52.62
2022-11-08T00:15:19.968Z,53.14
2022-11-08T00:20:21.736Z,53.11
2022-11-08T00:25:23.532Z,53.09
2022-11-08T00:30:25.308Z,53.01
2022-11-08T00:35:27.085Z,52.97
2022-11-08T00:40:28.863Z,52.94
2022-11-08T00:45:30.666Z,53.42
2022-11-08T00:50:32.514Z,53.38
2022-11-08T00:55:34.295Z,53.29
2022-11-08T01:00:36.208Z,53.42
2022-11-08T01:05:38.401Z,53.16
2022-11-08T01:10:45.659Z,53.63
2022-11-08T01:15:48.425Z,53.58
2022-11-08T01:20:50.896Z,53.78
2022-11-08T01:25:52.706Z,53.33
2022-11-08T01:30:54.484Z,53.61
2022-11-08T01:35:56.343Z,53.83
2022-11-08T01:40:58.132Z,53.57
2022-11-08T01:46:18.376Z,53.48
2022-11-08T01:51:26.082Z,53.31
2022-11-08T01:56:28.036Z,53.69
2022-11-08T02:01:30.127Z,53.61
2022-11-08T02:06:35.888Z,53.51
2022-11-08T02:11:39.512Z,53.22
2022-11-08T02:16:41.302Z,53.51
2022-11-08T02:21:50.805Z,53.63
2022-11-08T02:26:55.282Z,53.34
2022-11-08T02:31:58.768Z,53.58
2022-11-08T02:37:03.627Z,53.39
2022-11-08T02:42:05.576Z,53.13
2022-11-08T02:47:07.387Z,53.12
2022-11-08T02:52:09.502Z,53.13
2022-11-08T02:57:11.332Z,53.46
2022-11-08T03:02:13.232Z,53.26
2022-11-08T03:07:15.220Z,53.47
2022-11-08T03:12:17.044Z,53.25
2022-11-08T03:17:18.837Z,53.70
2022-11-08T03:22:20.638Z,53.46
2022-11-08T03:27:23.382Z,53.43
2022-11-08T03:32:25.129Z,53.55
2022-11-08T03:37:26.913Z,53.43
2022-11-08T03:42:28.689Z,53.13
2022-11-08T03:47:30.459Z,53.23
2022-11-08T03:52:32.199Z,53.51
2022-11-08T03:57:34.173Z,53.30
2022-11-08T04:02:35.972Z,53.33
2022-11-08T04:07:38.338Z,53.24
2022-11-08T04:12:59.934Z,53.34
2022-11-08T04:18:21.016Z,52.81
2022-11-08T04:23:23.097Z,52.84
2022-11-08T04:28:26.978Z,52.81
2022-11-08T04:33:28.983Z,52.87
2022-11-08T04:38:31.926Z,52.71
2022-11-08T04:43:33.913Z,52.88
2022-11-08T04:48:36.350Z,52.72
2022-11-08T04:53:38.135Z,52.96
2022-11-08T04:58:45.435Z,53.10
2022-11-08T05:03:49.283Z,52.72
2022-11-08T05:08:51.512Z,52.50
2022-11-08T05:13:53.840Z,52.57
2022-11-08T05:18:56.186Z,52.63
2022-11-08T05:23:59.094Z,52.46
2022-11-08T05:29:00.898Z,52.32
2022-11-08T05:34:02.740Z,52.52
2022-11-08T05:39:04.586Z,52.48
2022-11-08T05:44:06.406Z,52.44
2022-11-08T05:49:08.201Z,52.56
2022-11-08T05:54:10.282Z,52.30
2022-11-08T05:59:12.055Z,52.41
2022-11-08T06:04:13.921Z,52.77
2022-11-08T06:09:15.699Z,52.90
2022-11-08T06:14:17.463Z,53.15
2022-11-08T06:19:19.262Z,53.12
2022-11-08T06:24:21.065Z,52.87
2022-11-08T06:29:22.870Z,52.71
2022-11-08T06:34:25.227Z,52.60
2022-11-08T06:39:27.130Z,52.41
2022-11-08T06:44:28.955Z,52.18
2022-11-08T06:49:30.741Z,51.78
2022-11-08T06:54:32.547Z,51.88
2022-11-08T06:59:34.334Z,51.84
2022-11-08T07:04:36.138Z,50.96
2022-11-08T07:09:37.934Z,50.32
2022-11-08T07:14:39.716Z,50.28
2022-11-08T07:19:41.617Z,50.45
2022-11-08T07:24:43.408Z,50.01
2022-11-08T07:29:45.219Z,50.09
2022-11-08T07:34:47.118Z,50.03
2022-11-08T07:39:48.910Z,49.58
2022-11-08T07:44:50.907Z,49.62
2022-11-08T07:49:52.701Z,49.53
2022-11-08T07:54:54.721Z,49.37
2022-11-08T07:59:56.526Z,48.73
2022-11-08T08:04:58.332Z,48.60
2022-11-08T08:10:00.242Z,48.60
2022-11-08T08:15:02.172Z,48.30
2022-11-08T08:20:04.745Z,48.13
2022-11-08T08:25:07.189Z,48.03
2022-11-08T08:30:09.313Z,47.73
2022-11-08T08:35:11.623Z,47.62
2022-11-08T08:40:13.509Z,47.38
2022-11-08T08:45:15.429Z,47.16
2022-11-08T08:50:17.272Z,46.96
2022-11-08T08:55:19.517Z,47.03
2022-11-08T09:05:47.018Z,46.66
2022-11-08T09:10:57.305Z,46.52
2022-11-08T09:16:01.884Z,46.53
2022-11-08T09:21:04.473Z,46.40
2022-11-08T09:26:06.622Z,46.28
2022-11-08T09:31:10.913Z,46.09
2022-11-08T09:36:14.141Z,45.91
2022-11-08T09:41:41.589Z,46.00
2022-11-08T09:46:53.678Z,45.92
2022-11-08T09:51:55.692Z,45.89
2022-11-08T09:56:58.373Z,45.43
2022-11-08T10:02:00.327Z,44.82
2022-11-08T10:07:08.019Z,44.44
2022-11-08T10:12:28.522Z,44.42
2022-11-08T10:17:42.198Z,44.01
2022-11-08T10:23:05.501Z,43.84
2022-11-08T10:28:08.301Z,43.42
2022-11-08T10:33:18.419Z,43.34
2022-11-08T10:38:24.989Z,43.14
2022-11-08T10:43:49.930Z,43.21
2022-11-08T10:48:51.737Z,42.88
2022-11-08T10:53:53.595Z,41.99
2022-11-08T10:58:55.451Z,41.34
2022-11-08T11:03:57.291Z,40.77
2022-11-08T11:09:03.814Z,40.44
2022-11-08T11:14:22.249Z,40.85
2022-11-08T11:19:26.274Z,40.70
2022-11-08T11:24:28.498Z,40.64
2022-11-08T11:29:32.714Z,40.55
2022-11-08T11:34:49.205Z,40.34
2022-11-08T11:40:12.813Z,40.45
2022-11-08T11:45:17.953Z,38.52
2022-11-08T11:50:28.657Z,39.08
2022-11-08T11:55:49.339Z,39.28
2022-11-08T12:01:14.833Z,38.45
2022-11-08T12:06:21.580Z,38.44
2022-11-08T12:11:36.462Z,38.48
2022-11-08T12:17:07.481Z,37.93
2022-11-08T12:22:12.090Z,37.76
2022-11-08T12:27:31.188Z,37.31
2022-11-08T12:32:45.568Z,36.76
2022-11-08T12:38:05.829Z,37.14
2022-11-08T12:43:23.135Z,36.94
2022-11-08T12:48:24.896Z,36.48
2022-11-08T12:53:51.518Z,35.67
2022-11-08T12:58:55.146Z,35.53
2022-11-08T13:04:21.648Z,34.26
2022-11-08T13:09:37.416Z,31.38
2022-11-08T13:14:41.423Z,30.54
2022-11-08T13:19:49.788Z,29.65
2022-11-08T13:24:51.682Z,31.60
2022-11-08T13:29:56.844Z,33.15
2022-11-08T13:35:25.616Z,33.30
2022-11-08T13:40:55.692Z,32.29
2022-11-08T13:46:31.878Z,29.83
2022-11-08T13:51:36.748Z,30.06
2022-11-08T13:56:45.937Z,30.47
2022-11-08T14:01:47.689Z,31.59
2022-11-08T14:06:55.185Z,33.42
2022-11-08T14:12:12.322Z,34.90
2022-11-08T14:17:26.662Z,35.94
2022-11-08T14:22:30.374Z,35.97
2022-11-08T14:27:36.825Z,36.15
2022-11-08T14:32:40.780Z,36.33
2022-11-08T14:37:44.042Z,36.68
2022-11-08T14:42:46.006Z,36.96
2022-11-08T14:48:00.820Z,37.29
2022-11-08T14:53:45.008Z,37.59
2022-11-08T14:58:48.444Z,38.06
2022-11-08T15:03:55.789Z,38.56
2022-11-08T15:08:58.176Z,38.74
2022-11-08T15:14:17.062Z,39.39
2022-11-08T15:19:30.285Z,39.52
2022-11-08T15:24:39.981Z,39.87
2022-11-08T15:30:07.152Z,40.08
2022-11-08T15:35:23.903Z,40.11
2022-11-08T15:40:32.043Z,40.54
2022-11-08T15:45:35.749Z,40.72
2022-11-08T15:50:37.693Z,41.18
2022-11-08T15:55:49.047Z,41.50
2022-11-08T16:00:51.158Z,41.25
2022-11-08T16:05:53.312Z,41.22
2022-11-08T16:10:59.818Z,40.98
2022-11-08T16:16:04.054Z,41.06
2022-11-08T16:21:06.624Z,41.24
2022-11-08T16:26:15.374Z,41.20
2022-11-08T16:31:20.822Z,41.57
2022-11-08T16:36:25.716Z,41.41
2022-11-08T16:41:27.755Z,41.27
2022-11-08T16:46:29.673Z,41.63
2022-11-08T16:51:31.987Z,41.62
2022-11-08T16:56:33.898Z,41.57
2022-11-08T17:01:36.176Z,41.98
2022-11-08T17:06:38.191Z,42.18
2022-11-08T17:11:40.911Z,42.17
2022-11-08T17:16:42.816Z,42.20
2022-11-08T17:21:45.892Z,42.23
2022-11-08T17:26:48.198Z,42.70
2022-11-08T17:31:50.478Z,42.91
2022-11-08T17:36:53.076Z,42.95
2022-11-08T17:41:54.973Z,42.93
2022-11-08T17:46:56.813Z,43.39
2022-11-08T17:51:58.713Z,44.09
2022-11-08T17:57:00.676Z,43.80
2022-11-08T18:02:03.380Z,43.71
2022-11-08T18:07:05.827Z,43.60
2022-11-08T18:12:07.850Z,43.41
2022-11-08T18:17:09.853Z,43.30
2022-11-08T18:22:11.703Z,43.32
2022-11-08T18:27:13.645Z,43.52
2022-11-08T18:32:15.667Z,43.34
2022-11-08T18:37:17.584Z,43.41
2022-11-08T18:42:19.425Z,43.17
2022-11-08T18:47:21.310Z,43.11
2022-11-08T18:52:23.160Z,42.75
2022-11-08T18:57:25.114Z,42.62
2022-11-08T19:02:27.020Z,42.39
2022-11-08T19:07:29.792Z,42.37
2022-11-08T19:12:31.777Z,42.20
2022-11-08T19:17:35.401Z,42.08
2022-11-08T19:22:37.313Z,41.83
2022-11-08T19:27:39.241Z,42.05
2022-11-08T19:32:41.185Z,42.06
2022-11-08T19:37:43.172Z,41.58
2022-11-08T19:42:45.077Z,41.62
2022-11-08T19:47:50.563Z,41.44
2022-11-08T19:52:52.581Z,41.30
2022-11-08T19:57:54.564Z,41.32
2022-11-08T20:02:56.485Z,41.19
2022-11-08T20:07:58.347Z,40.96
2022-11-08T20:13:00.253Z,41.02
2022-11-08T20:18:02.023Z,41.15
2022-11-08T20:23:04.641Z,41.32
2022-11-08T20:28:07.079Z,41.46
2022-11-08T20:33:08.906Z,41.40
2022-11-08T20:38:10.704Z,41.70
2022-11-08T20:43:12.541Z,41.63
2022-11-08T20:48:14.495Z,41.71
2022-11-08T20:53:16.316Z,42.08
2022-11-08T20:58:18.402Z,41.74
2022-11-08T21:03:21.920Z,42.22
2022-11-08T21:13:47.244Z,42.42
2022-11-08T21:18:49.159Z,42.61
2022-11-08T21:23:51.605Z,42.75
2022-11-08T21:28:54.449Z,42.92
2022-11-08T21:33:56.317Z,43.01
2022-11-08T21:38:58.123Z,42.93
2022-11-08T21:44:00.118Z,43.19
2022-11-08T21:49:02.406Z,43.03
2022-11-08T21:54:05.240Z,43.20
2022-11-08T21:59:07.090Z,43.37
2022-11-08T22:04:08.879Z,43.48
2022-11-08T22:09:10.689Z,43.45
2022-11-08T22:14:12.673Z,43.65
2022-11-08T22:19:15.554Z,43.61
2022-11-08T22:24:22.783Z,44.03
2022-11-08T22:29:25.139Z,43.70
2022-11-08T22:34:27.426Z,43.88
2022-11-08T22:39:29.494Z,43.84
2022-11-08T22:44:31.307Z,44.32
2022-11-08T22:49:33.120Z,44.14
2022-11-08T22:54:35.187Z,44.27
2022-11-08T22:59:36.990Z,44.06
2022-11-08T23:04:38.820Z,44.55
2022-11-08T23:09:40.669Z,44.55
2022-11-08T23:15:00.934Z,44.24
2022-11-08T23:20:21.515Z,44.77
2022-11-08T23:25:23.304Z,44.71
2022-11-08T23:30:43.974Z,45.17
2022-11-08T23:36:05.736Z,45.38
2022-11-08T23:41:26.534Z,45.62
2022-11-08T23:46:28.231Z,45.25
2022-11-08T23:51:30.420Z,45.53
2022-11-08T23:56:32.285Z,45.66
